sensor_id;sensor_type;location;lat;lon;timestamp;P1;durP1;ratioP1;P2;durP2;ratioP2
15946;SDS011;8072;52.554;7.966;2023-05-14T00:01:20;10.07;;;8.47;;
15946;SDS011;8072;52.554;7.966;2023-05-14T00:03:46;11.13;;;9.30;;
15946;SDS011;8072;52.554;7.966;2023-05-14T00:06:11;12.50;;;8.37;;
15946;SDS011;8072;52.554;7.966;2023-05-14T00:08:39;11.50;;;8.37;;
15946;SDS011;8072;52.554;7.966;2023-05-14T00:11:04;11.33;;;8.73;;
15946;SDS011;8072;52.554;7.966;2023-05-14T00:13:33;11.93;;;8.83;;
15946;SDS011;8072;52.554;7.966;2023-05-14T00:15:59;10.33;;;8.70;;
15946;SDS011;8072;52.554;7.966;2023-05-14T00:18:25;12.37;;;9.80;;
15946;SDS011;8072;52.554;7.966;2023-05-14T00:20:51;11.07;;;9.17;;
15946;SDS011;8072;52.554;7.966;2023-05-14T00:23:22;10.60;;;9.03;;
15946;SDS011;8072;52.554;7.966;2023-05-14T00:25:48;13.03;;;9.20;;
15946;SDS011;8072;52.554;7.966;2023-05-14T00:28:14;12.17;;;9.47;;
15946;SDS011;8072;52.554;7.966;2023-05-14T00:30:40;12.43;;;10.03;;
15946;SDS011;8072;52.554;7.966;2023-05-14T00:33:06;10.97;;;8.30;;
15946;SDS011;8072;52.554;7.966;2023-05-14T00:35:32;13.47;;;8.87;;
15946;SDS011;8072;52.554;7.966;2023-05-14T00:38:01;11.10;;;9.37;;
15946;SDS011;8072;52.554;7.966;2023-05-14T00:40:27;11.47;;;9.07;;
15946;SDS011;8072;52.554;7.966;2023-05-14T00:42:53;12.50;;;8.73;;
15946;SDS011;8072;52.554;7.966;2023-05-14T00:45:19;11.47;;;8.60;;
15946;SDS011;8072;52.554;7.966;2023-05-14T00:47:46;12.83;;;9.33;;
15946;SDS011;8072;52.554;7.966;2023-05-14T00:50:15;10.60;;;9.03;;
15946;SDS011;8072;52.554;7.966;2023-05-14T00:52:42;11.47;;;9.33;;
15946;SDS011;8072;52.554;7.966;2023-05-14T00:55:08;12.63;;;10.37;;
15946;SDS011;8072;52.554;7.966;2023-05-14T00:57:40;13.07;;;9.43;;
15946;SDS011;8072;52.554;7.966;2023-05-14T01:00:06;13.97;;;10.67;;
15946;SDS011;8072;52.554;7.966;2023-05-14T01:02:33;11.17;;;9.70;;
15946;SDS011;8072;52.554;7.966;2023-05-14T01:04:58;10.30;;;9.27;;
15946;SDS011;8072;52.554;7.966;2023-05-14T01:07:45;12.47;;;10.20;;
15946;SDS011;8072;52.554;7.966;2023-05-14T01:10:33;12.43;;;9.13;;
15946;SDS011;8072;52.554;7.966;2023-05-14T01:16:00;11.03;;;9.00;;
15946;SDS011;8072;52.554;7.966;2023-05-14T01:18:28;12.43;;;9.93;;
15946;SDS011;8072;52.554;7.966;2023-05-14T01:20:56;13.03;;;9.67;;
15946;SDS011;8072;52.554;7.966;2023-05-14T01:23:22;12.03;;;9.93;;
15946;SDS011;8072;52.554;7.966;2023-05-14T01:25:48;12.13;;;9.53;;
15946;SDS011;8072;52.554;7.966;2023-05-14T01:28:18;11.57;;;9.50;;
15946;SDS011;8072;52.554;7.966;2023-05-14T01:30:52;13.70;;;9.10;;
15946;SDS011;8072;52.554;7.966;2023-05-14T01:33:18;12.20;;;8.83;;
15946;SDS011;8072;52.554;7.966;2023-05-14T01:35:46;12.70;;;9.10;;
15946;SDS011;8072;52.554;7.966;2023-05-14T01:38:14;10.40;;;9.20;;
15946;SDS011;8072;52.554;7.966;2023-05-14T01:40:43;12.17;;;9.57;;
15946;SDS011;8072;52.554;7.966;2023-05-14T01:43:10;11.63;;;9.63;;
15946;SDS011;8072;52.554;7.966;2023-05-14T01:45:36;12.37;;;10.27;;
15946;SDS011;8072;52.554;7.966;2023-05-14T01:48:05;15.13;;;8.70;;
15946;SDS011;8072;52.554;7.966;2023-05-14T01:50:31;10.50;;;9.37;;
15946;SDS011;8072;52.554;7.966;2023-05-14T01:52:57;11.80;;;9.60;;
15946;SDS011;8072;52.554;7.966;2023-05-14T01:55:23;10.70;;;9.53;;
15946;SDS011;8072;52.554;7.966;2023-05-14T01:57:50;10.17;;;9.07;;
15946;SDS011;8072;52.554;7.966;2023-05-14T02:00:16;11.73;;;8.93;;
15946;SDS011;8072;52.554;7.966;2023-05-14T02:02:43;11.70;;;9.53;;
15946;SDS011;8072;52.554;7.966;2023-05-14T02:05:11;10.13;;;9.10;;
15946;SDS011;8072;52.554;7.966;2023-05-14T02:07:38;11.60;;;9.50;;
15946;SDS011;8072;52.554;7.966;2023-05-14T02:10:03;10.10;;;8.67;;
15946;SDS011;8072;52.554;7.966;2023-05-14T02:12:30;11.67;;;10.33;;
15946;SDS011;8072;52.554;7.966;2023-05-14T02:14:56;11.17;;;10.07;;
15946;SDS011;8072;52.554;7.966;2023-05-14T02:17:22;13.43;;;10.23;;
15946;SDS011;8072;52.554;7.966;2023-05-14T02:19:49;13.20;;;10.07;;
15946;SDS011;8072;52.554;7.966;2023-05-14T02:22:14;13.17;;;10.50;;
15946;SDS011;8072;52.554;7.966;2023-05-14T02:24:40;12.27;;;9.73;;
15946;SDS011;8072;52.554;7.966;2023-05-14T02:27:06;11.47;;;9.13;;
15946;SDS011;8072;52.554;7.966;2023-05-14T02:29:32;15.27;;;11.43;;
15946;SDS011;8072;52.554;7.966;2023-05-14T02:31:58;12.20;;;10.60;;
15946;SDS011;8072;52.554;7.966;2023-05-14T02:34:24;13.50;;;10.10;;
15946;SDS011;8072;52.554;7.966;2023-05-14T02:36:50;12.07;;;9.70;;
15946;SDS011;8072;52.554;7.966;2023-05-14T02:39:16;11.43;;;10.23;;
15946;SDS011;8072;52.554;7.966;2023-05-14T02:41:42;14.87;;;11.00;;
15946;SDS011;8072;52.554;7.966;2023-05-14T02:44:08;14.27;;;11.23;;
15946;SDS011;8072;52.554;7.966;2023-05-14T02:46:34;13.73;;;10.80;;
15946;SDS011;8072;52.554;7.966;2023-05-14T02:48:59;12.40;;;11.03;;
15946;SDS011;8072;52.554;7.966;2023-05-14T02:51:26;12.50;;;10.83;;
15946;SDS011;8072;52.554;7.966;2023-05-14T02:53:52;11.67;;;9.67;;
15946;SDS011;8072;52.554;7.966;2023-05-14T02:56:18;11.80;;;9.97;;
15946;SDS011;8072;52.554;7.966;2023-05-14T02:58:45;12.23;;;10.20;;
15946;SDS011;8072;52.554;7.966;2023-05-14T03:01:11;12.93;;;10.20;;
15946;SDS011;8072;52.554;7.966;2023-05-14T03:03:37;13.73;;;9.97;;
15946;SDS011;8072;52.554;7.966;2023-05-14T03:06:04;11.67;;;9.73;;
15946;SDS011;8072;52.554;7.966;2023-05-14T03:08:30;12.27;;;9.70;;
15946;SDS011;8072;52.554;7.966;2023-05-14T03:10:55;12.37;;;9.80;;
15946;SDS011;8072;52.554;7.966;2023-05-14T03:13:21;10.87;;;9.03;;
15946;SDS011;8072;52.554;7.966;2023-05-14T03:15:47;11.83;;;9.90;;
15946;SDS011;8072;52.554;7.966;2023-05-14T03:18:15;14.53;;;10.80;;
15946;SDS011;8072;52.554;7.966;2023-05-14T03:20:40;11.20;;;9.80;;
15946;SDS011;8072;52.554;7.966;2023-05-14T03:23:06;12.20;;;10.13;;
15946;SDS011;8072;52.554;7.966;2023-05-14T03:25:32;12.20;;;10.97;;
15946;SDS011;8072;52.554;7.966;2023-05-14T03:27:59;11.47;;;9.70;;
15946;SDS011;8072;52.554;7.966;2023-05-14T03:30:24;10.97;;;9.87;;
15946;SDS011;8072;52.554;7.966;2023-05-14T03:32:50;12.17;;;10.67;;
15946;SDS011;8072;52.554;7.966;2023-05-14T03:35:16;13.40;;;10.53;;
15946;SDS011;8072;52.554;7.966;2023-05-14T03:37:42;10.83;;;9.50;;
15946;SDS011;8072;52.554;7.966;2023-05-14T03:40:08;13.20;;;10.27;;
15946;SDS011;8072;52.554;7.966;2023-05-14T03:42:34;13.17;;;10.20;;
15946;SDS011;8072;52.554;7.966;2023-05-14T03:45:00;11.27;;;10.00;;
15946;SDS011;8072;52.554;7.966;2023-05-14T03:47:26;12.37;;;10.27;;
15946;SDS011;8072;52.554;7.966;2023-05-14T03:49:52;13.43;;;10.20;;
15946;SDS011;8072;52.554;7.966;2023-05-14T03:52:17;11.50;;;10.30;;
15946;SDS011;8072;52.554;7.966;2023-05-14T03:54:44;13.33;;;10.60;;
15946;SDS011;8072;52.554;7.966;2023-05-14T03:57:09;12.37;;;11.00;;
15946;SDS011;8072;52.554;7.966;2023-05-14T03:59:35;12.47;;;10.73;;
15946;SDS011;8072;52.554;7.966;2023-05-14T04:02:01;12.40;;;9.67;;
15946;SDS011;8072;52.554;7.966;2023-05-14T04:04:27;13.80;;;10.63;;
15946;SDS011;8072;52.554;7.966;2023-05-14T04:06:53;14.93;;;12.10;;
15946;SDS011;8072;52.554;7.966;2023-05-14T04:09:18;13.30;;;11.03;;
15946;SDS011;8072;52.554;7.966;2023-05-14T04:11:44;14.37;;;11.93;;
15946;SDS011;8072;52.554;7.966;2023-05-14T04:14:10;13.27;;;11.53;;
15946;SDS011;8072;52.554;7.966;2023-05-14T04:16:37;16.37;;;11.63;;
15946;SDS011;8072;52.554;7.966;2023-05-14T04:19:05;15.37;;;12.47;;
15946;SDS011;8072;52.554;7.966;2023-05-14T04:21:31;13.97;;;11.83;;
15946;SDS011;8072;52.554;7.966;2023-05-14T04:23:57;13.70;;;11.50;;
15946;SDS011;8072;52.554;7.966;2023-05-14T04:26:23;14.40;;;11.33;;
15946;SDS011;8072;52.554;7.966;2023-05-14T04:28:49;17.80;;;12.77;;
15946;SDS011;8072;52.554;7.966;2023-05-14T04:31:15;13.10;;;11.60;;
15946;SDS011;8072;52.554;7.966;2023-05-14T04:33:40;11.40;;;10.20;;
15946;SDS011;8072;52.554;7.966;2023-05-14T04:36:06;15.53;;;12.63;;
15946;SDS011;8072;52.554;7.966;2023-05-14T04:38:32;14.47;;;12.03;;
15946;SDS011;8072;52.554;7.966;2023-05-14T04:40:59;19.23;;;12.23;;
15946;SDS011;8072;52.554;7.966;2023-05-14T04:43:25;17.73;;;12.57;;
15946;SDS011;8072;52.554;7.966;2023-05-14T04:45:52;15.27;;;12.07;;
15946;SDS011;8072;52.554;7.966;2023-05-14T04:48:18;14.67;;;12.53;;
15946;SDS011;8072;52.554;7.966;2023-05-14T04:50:44;14.70;;;11.53;;
15946;SDS011;8072;52.554;7.966;2023-05-14T04:53:10;13.20;;;11.57;;
15946;SDS011;8072;52.554;7.966;2023-05-14T04:55:36;19.20;;;12.43;;
15946;SDS011;8072;52.554;7.966;2023-05-14T04:58:02;15.73;;;12.37;;
15946;SDS011;8072;52.554;7.966;2023-05-14T05:00:28;14.50;;;12.13;;
15946;SDS011;8072;52.554;7.966;2023-05-14T05:02:54;17.77;;;12.83;;
15946;SDS011;8072;52.554;7.966;2023-05-14T05:05:20;15.97;;;13.00;;
15946;SDS011;8072;52.554;7.966;2023-05-14T05:07:46;14.50;;;12.60;;
15946;SDS011;8072;52.554;7.966;2023-05-14T05:10:12;17.57;;;13.73;;
15946;SDS011;8072;52.554;7.966;2023-05-14T05:12:40;14.77;;;12.50;;
15946;SDS011;8072;52.554;7.966;2023-05-14T05:15:06;15.43;;;12.93;;
15946;SDS011;8072;52.554;7.966;2023-05-14T05:17:34;16.03;;;12.80;;
15946;SDS011;8072;52.554;7.966;2023-05-14T05:20:00;15.67;;;13.83;;
15946;SDS011;8072;52.554;7.966;2023-05-14T05:22:26;16.57;;;13.63;;
15946;SDS011;8072;52.554;7.966;2023-05-14T05:24:52;17.03;;;13.83;;
15946;SDS011;8072;52.554;7.966;2023-05-14T05:27:18;18.17;;;13.60;;
15946;SDS011;8072;52.554;7.966;2023-05-14T05:29:46;22.73;;;15.20;;
15946;SDS011;8072;52.554;7.966;2023-05-14T05:32:12;16.57;;;13.43;;
15946;SDS011;8072;52.554;7.966;2023-05-14T05:34:41;19.50;;;14.93;;
15946;SDS011;8072;52.554;7.966;2023-05-14T05:37:07;15.47;;;13.87;;
15946;SDS011;8072;52.554;7.966;2023-05-14T05:39:36;16.60;;;13.77;;
15946;SDS011;8072;52.554;7.966;2023-05-14T05:42:03;16.17;;;13.83;;
15946;SDS011;8072;52.554;7.966;2023-05-14T05:44:29;16.47;;;13.93;;
15946;SDS011;8072;52.554;7.966;2023-05-14T05:46:55;15.47;;;12.40;;
15946;SDS011;8072;52.554;7.966;2023-05-14T05:49:21;18.73;;;13.40;;
15946;SDS011;8072;52.554;7.966;2023-05-14T05:51:49;15.97;;;13.43;;
15946;SDS011;8072;52.554;7.966;2023-05-14T05:54:15;15.93;;;13.30;;
15946;SDS011;8072;52.554;7.966;2023-05-14T05:56:41;16.70;;;13.80;;
15946;SDS011;8072;52.554;7.966;2023-05-14T05:59:08;18.47;;;13.30;;
15946;SDS011;8072;52.554;7.966;2023-05-14T06:01:34;15.63;;;12.90;;
15946;SDS011;8072;52.554;7.966;2023-05-14T06:04:00;15.10;;;12.53;;
15946;SDS011;8072;52.554;7.966;2023-05-14T06:06:27;14.57;;;12.83;;
15946;SDS011;8072;52.554;7.966;2023-05-14T06:08:53;14.47;;;12.17;;
15946;SDS011;8072;52.554;7.966;2023-05-14T06:11:19;16.83;;;11.73;;
15946;SDS011;8072;52.554;7.966;2023-05-14T06:13:47;15.40;;;12.87;;
15946;SDS011;8072;52.554;7.966;2023-05-14T06:16:13;17.67;;;12.93;;
15946;SDS011;8072;52.554;7.966;2023-05-14T06:18:38;13.70;;;12.27;;
15946;SDS011;8072;52.554;7.966;2023-05-14T06:21:04;15.50;;;12.73;;
15946;SDS011;8072;52.554;7.966;2023-05-14T06:23:30;14.00;;;11.93;;
15946;SDS011;8072;52.554;7.966;2023-05-14T06:25:56;17.73;;;12.50;;
15946;SDS011;8072;52.554;7.966;2023-05-14T06:28:22;18.03;;;13.07;;
15946;SDS011;8072;52.554;7.966;2023-05-14T06:30:51;16.03;;;12.13;;
15946;SDS011;8072;52.554;7.966;2023-05-14T06:33:18;14.67;;;12.80;;
15946;SDS011;8072;52.554;7.966;2023-05-14T06:35:48;17.00;;;12.37;;
15946;SDS011;8072;52.554;7.966;2023-05-14T06:38:14;15.03;;;13.30;;
15946;SDS011;8072;52.554;7.966;2023-05-14T06:40:40;16.50;;;13.30;;
15946;SDS011;8072;52.554;7.966;2023-05-14T06:43:05;15.10;;;12.27;;
15946;SDS011;8072;52.554;7.966;2023-05-14T06:45:31;13.27;;;11.90;;
15946;SDS011;8072;52.554;7.966;2023-05-14T06:47:57;13.57;;;10.43;;
15946;SDS011;8072;52.554;7.966;2023-05-14T06:50:23;13.80;;;11.50;;
15946;SDS011;8072;52.554;7.966;2023-05-14T06:52:49;13.70;;;11.07;;
15946;SDS011;8072;52.554;7.966;2023-05-14T06:55:14;15.37;;;10.70;;
15946;SDS011;8072;52.554;7.966;2023-05-14T06:57:40;16.10;;;11.17;;
15946;SDS011;8072;52.554;7.966;2023-05-14T07:00:06;15.53;;;9.77;;
15946;SDS011;8072;52.554;7.966;2023-05-14T07:02:32;13.43;;;10.60;;
15946;SDS011;8072;52.554;7.966;2023-05-14T07:04:58;11.13;;;9.90;;
15946;SDS011;8072;52.554;7.966;2023-05-14T07:07:24;10.80;;;9.70;;
15946;SDS011;8072;52.554;7.966;2023-05-14T07:09:50;10.50;;;9.40;;
15946;SDS011;8072;52.554;7.966;2023-05-14T07:12:16;10.27;;;9.00;;
15946;SDS011;8072;52.554;7.966;2023-05-14T07:14:42;12.20;;;9.93;;
15946;SDS011;8072;52.554;7.966;2023-05-14T07:17:08;11.33;;;9.93;;
15946;SDS011;8072;52.554;7.966;2023-05-14T07:19:34;11.83;;;9.43;;
15946;SDS011;8072;52.554;7.966;2023-05-14T07:22:00;10.97;;;8.60;;
15946;SDS011;8072;52.554;7.966;2023-05-14T07:24:26;11.67;;;9.40;;
15946;SDS011;8072;52.554;7.966;2023-05-14T07:26:52;8.77;;;7.87;;
15946;SDS011;8072;52.554;7.966;2023-05-14T07:29:19;11.10;;;8.67;;
15946;SDS011;8072;52.554;7.966;2023-05-14T07:31:45;10.60;;;9.07;;
15946;SDS011;8072;52.554;7.966;2023-05-14T07:34:11;11.20;;;8.97;;
15946;SDS011;8072;52.554;7.966;2023-05-14T07:36:37;10.47;;;8.47;;
15946;SDS011;8072;52.554;7.966;2023-05-14T07:39:03;9.87;;;8.67;;
15946;SDS011;8072;52.554;7.966;2023-05-14T07:41:29;10.43;;;8.40;;
15946;SDS011;8072;52.554;7.966;2023-05-14T07:43:55;9.37;;;8.40;;
15946;SDS011;8072;52.554;7.966;2023-05-14T07:46:21;9.47;;;8.13;;
15946;SDS011;8072;52.554;7.966;2023-05-14T07:48:48;9.60;;;7.93;;
15946;SDS011;8072;52.554;7.966;2023-05-14T07:51:13;10.40;;;8.57;;
15946;SDS011;8072;52.554;7.966;2023-05-14T07:53:40;9.07;;;8.07;;
15946;SDS011;8072;52.554;7.966;2023-05-14T07:56:06;9.43;;;7.10;;
15946;SDS011;8072;52.554;7.966;2023-05-14T07:58:32;8.50;;;6.93;;
15946;SDS011;8072;52.554;7.966;2023-05-14T08:00:59;7.43;;;6.67;;
15946;SDS011;8072;52.554;7.966;2023-05-14T08:03:25;8.30;;;7.50;;
15946;SDS011;8072;52.554;7.966;2023-05-14T08:05:51;8.23;;;7.27;;
15946;SDS011;8072;52.554;7.966;2023-05-14T08:08:17;8.73;;;7.63;;
15946;SDS011;8072;52.554;7.966;2023-05-14T08:10:42;8.33;;;7.53;;
15946;SDS011;8072;52.554;7.966;2023-05-14T08:13:08;8.23;;;7.43;;
15946;SDS011;8072;52.554;7.966;2023-05-14T08:15:35;7.83;;;7.03;;
15946;SDS011;8072;52.554;7.966;2023-05-14T08:18:01;10.23;;;6.87;;
15946;SDS011;8072;52.554;7.966;2023-05-14T08:20:28;8.27;;;6.90;;
15946;SDS011;8072;52.554;7.966;2023-05-14T08:22:55;8.13;;;7.27;;
15946;SDS011;8072;52.554;7.966;2023-05-14T08:25:22;7.83;;;7.00;;
15946;SDS011;8072;52.554;7.966;2023-05-14T08:27:48;8.63;;;6.80;;
15946;SDS011;8072;52.554;7.966;2023-05-14T08:30:14;8.57;;;6.97;;
15946;SDS011;8072;52.554;7.966;2023-05-14T08:32:40;8.10;;;5.77;;
15946;SDS011;8072;52.554;7.966;2023-05-14T08:35:06;7.00;;;6.30;;
15946;SDS011;8072;52.554;7.966;2023-05-14T08:37:32;7.00;;;6.30;;
15946;SDS011;8072;52.554;7.966;2023-05-14T08:39:58;6.10;;;4.70;;
15946;SDS011;8072;52.554;7.966;2023-05-14T08:42:24;6.30;;;4.50;;
15946;SDS011;8072;52.554;7.966;2023-05-14T08:44:56;5.03;;;4.47;;
15946;SDS011;8072;52.554;7.966;2023-05-14T08:47:26;5.00;;;4.50;;
15946;SDS011;8072;52.554;7.966;2023-05-14T08:50:01;4.87;;;4.40;;
15946;SDS011;8072;52.554;7.966;2023-05-14T08:52:32;4.43;;;4.03;;
15946;SDS011;8072;52.554;7.966;2023-05-14T08:54:59;4.30;;;3.90;;
15946;SDS011;8072;52.554;7.966;2023-05-14T08:57:27;6.23;;;4.03;;
15946;SDS011;8072;52.554;7.966;2023-05-14T08:59:55;5.10;;;3.60;;
15946;SDS011;8072;52.554;7.966;2023-05-14T09:02:26;6.15;;;4.70;;
15946;SDS011;8072;52.554;7.966;2023-05-14T09:04:55;4.78;;;4.30;;
15946;SDS011;8072;52.554;7.966;2023-05-14T09:07:23;5.20;;;3.97;;
15946;SDS011;8072;52.554;7.966;2023-05-14T09:09:49;3.85;;;3.55;;
15946;SDS011;8072;52.554;7.966;2023-05-14T09:12:15;4.03;;;3.63;;
15946;SDS011;8072;52.554;7.966;2023-05-14T09:14:42;4.50;;;4.03;;
15946;SDS011;8072;52.554;7.966;2023-05-14T09:17:08;5.72;;;4.63;;
15946;SDS011;8072;52.554;7.966;2023-05-14T09:19:40;4.55;;;4.15;;
15946;SDS011;8072;52.554;7.966;2023-05-14T09:22:13;5.28;;;3.90;;
15946;SDS011;8072;52.554;7.966;2023-05-14T09:24:42;4.10;;;3.58;;
15946;SDS011;8072;52.554;7.966;2023-05-14T09:27:14;4.40;;;3.70;;
15946;SDS011;8072;52.554;7.966;2023-05-14T09:29:46;3.90;;;3.40;;
15946;SDS011;8072;52.554;7.966;2023-05-14T09:32:12;5.07;;;4.05;;
15946;SDS011;8072;52.554;7.966;2023-05-14T09:34:38;6.38;;;4.05;;
15946;SDS011;8072;52.554;7.966;2023-05-14T09:37:05;5.18;;;3.67;;
15946;SDS011;8072;52.554;7.966;2023-05-14T09:39:33;4.20;;;3.80;;
15946;SDS011;8072;52.554;7.966;2023-05-14T09:42:00;4.53;;;3.92;;
15946;SDS011;8072;52.554;7.966;2023-05-14T09:44:27;4.13;;;3.72;;
15946;SDS011;8072;52.554;7.966;2023-05-14T09:46:53;5.47;;;3.80;;
15946;SDS011;8072;52.554;7.966;2023-05-14T09:49:19;4.28;;;3.75;;
15946;SDS011;8072;52.554;7.966;2023-05-14T09:51:45;4.53;;;3.70;;
15946;SDS011;8072;52.554;7.966;2023-05-14T09:54:12;6.53;;;4.85;;
15946;SDS011;8072;52.554;7.966;2023-05-14T09:56:38;7.03;;;4.50;;
15946;SDS011;8072;52.554;7.966;2023-05-14T09:59:04;5.05;;;4.38;;
15946;SDS011;8072;52.554;7.966;2023-05-14T10:01:31;4.78;;;4.28;;
15946;SDS011;8072;52.554;7.966;2023-05-14T10:03:57;4.85;;;4.40;;
15946;SDS011;8072;52.554;7.966;2023-05-14T10:06:27;4.60;;;4.20;;
15946;SDS011;8072;52.554;7.966;2023-05-14T10:08:59;5.85;;;3.85;;
15946;SDS011;8072;52.554;7.966;2023-05-14T10:11:27;4.53;;;4.10;;
15946;SDS011;8072;52.554;7.966;2023-05-14T10:16:55;5.10;;;4.28;;
15946;SDS011;8072;52.554;7.966;2023-05-14T10:19:23;5.20;;;4.53;;
15946;SDS011;8072;52.554;7.966;2023-05-14T10:22:02;4.05;;;3.65;;
15946;SDS011;8072;52.554;7.966;2023-05-14T10:24:31;4.38;;;3.97;;
15946;SDS011;8072;52.554;7.966;2023-05-14T10:26:57;3.95;;;3.55;;
15946;SDS011;8072;52.554;7.966;2023-05-14T10:29:33;4.55;;;4.13;;
15946;SDS011;8072;52.554;7.966;2023-05-14T10:32:04;4.28;;;3.85;;
15946;SDS011;8072;52.554;7.966;2023-05-14T10:34:35;3.83;;;3.42;;
15946;SDS011;8072;52.554;7.966;2023-05-14T10:37:03;6.22;;;3.60;;
15946;SDS011;8072;52.554;7.966;2023-05-14T10:42:12;3.70;;;3.40;;
15946;SDS011;8072;52.554;7.966;2023-05-14T10:45:01;3.65;;;3.30;;
15946;SDS011;8072;52.554;7.966;2023-05-14T10:47:31;4.43;;;4.03;;
15946;SDS011;8072;52.554;7.966;2023-05-14T10:49:58;3.83;;;3.45;;
15946;SDS011;8072;52.554;7.966;2023-05-14T10:52:30;5.20;;;3.15;;
15946;SDS011;8072;52.554;7.966;2023-05-14T10:55:00;3.90;;;3.60;;
15946;SDS011;8072;52.554;7.966;2023-05-14T10:57:28;3.85;;;3.30;;
15946;SDS011;8072;52.554;7.966;2023-05-14T10:59:56;3.78;;;3.40;;
15946;SDS011;8072;52.554;7.966;2023-05-14T11:02:24;3.15;;;2.85;;
15946;SDS011;8072;52.554;7.966;2023-05-14T11:07:33;4.95;;;2.55;;
15946;SDS011;8072;52.554;7.966;2023-05-14T11:10:07;4.63;;;2.85;;
15946;SDS011;8072;52.554;7.966;2023-05-14T11:12:34;2.78;;;2.58;;
15946;SDS011;8072;52.554;7.966;2023-05-14T11:15:06;3.75;;;2.90;;
15946;SDS011;8072;52.554;7.966;2023-05-14T11:17:34;3.00;;;2.40;;
15946;SDS011;8072;52.554;7.966;2023-05-14T11:20:00;3.17;;;2.88;;
15946;SDS011;8072;52.554;7.966;2023-05-14T11:22:27;3.28;;;2.47;;
15946;SDS011;8072;52.554;7.966;2023-05-14T11:24:53;2.53;;;2.30;;
15946;SDS011;8072;52.554;7.966;2023-05-14T11:27:20;3.95;;;2.83;;
15946;SDS011;8072;52.554;7.966;2023-05-14T11:29:46;5.18;;;2.15;;
15946;SDS011;8072;52.554;7.966;2023-05-14T11:32:13;2.88;;;2.47;;
15946;SDS011;8072;52.554;7.966;2023-05-14T11:34:40;3.53;;;2.10;;
15946;SDS011;8072;52.554;7.966;2023-05-14T11:37:11;4.53;;;2.40;;
15946;SDS011;8072;52.554;7.966;2023-05-14T11:39:38;2.63;;;2.42;;
15946;SDS011;8072;52.554;7.966;2023-05-14T11:42:10;3.35;;;2.45;;
15946;SDS011;8072;52.554;7.966;2023-05-14T11:44:38;4.05;;;2.38;;
15946;SDS011;8072;52.554;7.966;2023-05-14T11:47:05;3.20;;;2.53;;
15946;SDS011;8072;52.554;7.966;2023-05-14T11:49:32;2.63;;;2.42;;
15946;SDS011;8072;52.554;7.966;2023-05-14T11:52:00;3.95;;;3.17;;
15946;SDS011;8072;52.554;7.966;2023-05-14T11:54:27;3.53;;;2.65;;
15946;SDS011;8072;52.554;7.966;2023-05-14T11:56:58;4.45;;;3.00;;
15946;SDS011;8072;52.554;7.966;2023-05-14T11:59:32;3.05;;;2.47;;
15946;SDS011;8072;52.554;7.966;2023-05-14T12:01:58;2.90;;;2.50;;
15946;SDS011;8072;52.554;7.966;2023-05-14T12:04:24;2.78;;;2.47;;
15946;SDS011;8072;52.554;7.966;2023-05-14T12:06:50;3.83;;;2.70;;
15946;SDS011;8072;52.554;7.966;2023-05-14T12:09:20;3.33;;;3.03;;
15946;SDS011;8072;52.554;7.966;2023-05-14T12:11:47;3.10;;;2.88;;
15946;SDS011;8072;52.554;7.966;2023-05-14T12:14:18;2.80;;;2.60;;
15946;SDS011;8072;52.554;7.966;2023-05-14T12:16:48;4.38;;;2.85;;
15946;SDS011;8072;52.554;7.966;2023-05-14T12:19:16;3.03;;;2.72;;
15946;SDS011;8072;52.554;7.966;2023-05-14T12:21:45;4.20;;;2.70;;
15946;SDS011;8072;52.554;7.966;2023-05-14T12:24:16;3.10;;;2.67;;
15946;SDS011;8072;52.554;7.966;2023-05-14T12:26:44;3.42;;;2.40;;
15946;SDS011;8072;52.554;7.966;2023-05-14T12:29:12;3.50;;;2.80;;
15946;SDS011;8072;52.554;7.966;2023-05-14T12:31:48;3.80;;;2.88;;
15946;SDS011;8072;52.554;7.966;2023-05-14T12:34:15;3.13;;;2.83;;
15946;SDS011;8072;52.554;7.966;2023-05-14T12:36:41;2.40;;;2.10;;
15946;SDS011;8072;52.554;7.966;2023-05-14T12:39:08;2.78;;;2.30;;
15946;SDS011;8072;52.554;7.966;2023-05-14T12:41:35;2.83;;;2.13;;
15946;SDS011;8072;52.554;7.966;2023-05-14T12:44:01;3.75;;;2.85;;
15946;SDS011;8072;52.554;7.966;2023-05-14T12:46:28;5.50;;;2.22;;
15946;SDS011;8072;52.554;7.966;2023-05-14T12:48:54;3.85;;;2.20;;
15946;SDS011;8072;52.554;7.966;2023-05-14T12:51:21;3.10;;;2.55;;
15946;SDS011;8072;52.554;7.966;2023-05-14T12:53:47;2.25;;;2.05;;
15946;SDS011;8072;52.554;7.966;2023-05-14T12:56:15;4.28;;;2.00;;
15946;SDS011;8072;52.554;7.966;2023-05-14T12:58:41;2.35;;;2.13;;
15946;SDS011;8072;52.554;7.966;2023-05-14T13:01:07;3.08;;;2.20;;
15946;SDS011;8072;52.554;7.966;2023-05-14T13:03:33;2.60;;;2.20;;
15946;SDS011;8072;52.554;7.966;2023-05-14T13:05:59;2.85;;;2.28;;
15946;SDS011;8072;52.554;7.966;2023-05-14T13:08:25;3.35;;;2.08;;
15946;SDS011;8072;52.554;7.966;2023-05-14T13:10:51;2.42;;;2.20;;
15946;SDS011;8072;52.554;7.966;2023-05-14T13:13:18;5.18;;;2.40;;
15946;SDS011;8072;52.554;7.966;2023-05-14T13:15:44;3.70;;;2.33;;
15946;SDS011;8072;52.554;7.966;2023-05-14T13:18:14;2.65;;;2.30;;
15946;SDS011;8072;52.554;7.966;2023-05-14T13:20:41;2.53;;;2.30;;
15946;SDS011;8072;52.554;7.966;2023-05-14T13:23:07;2.70;;;2.50;;
15946;SDS011;8072;52.554;7.966;2023-05-14T13:25:34;4.13;;;2.33;;
15946;SDS011;8072;52.554;7.966;2023-05-14T13:27:59;2.72;;;2.10;;
15946;SDS011;8072;52.554;7.966;2023-05-14T13:30:25;3.15;;;2.30;;
15946;SDS011;8072;52.554;7.966;2023-05-14T13:32:51;2.67;;;2.40;;
15946;SDS011;8072;52.554;7.966;2023-05-14T13:35:17;3.97;;;2.10;;
15946;SDS011;8072;52.554;7.966;2023-05-14T13:37:43;4.65;;;2.45;;
15946;SDS011;8072;52.554;7.966;2023-05-14T13:40:09;2.63;;;2.30;;
15946;SDS011;8072;52.554;7.966;2023-05-14T13:42:35;2.70;;;2.30;;
15946;SDS011;8072;52.554;7.966;2023-05-14T13:45:04;3.85;;;2.50;;
15946;SDS011;8072;52.554;7.966;2023-05-14T13:47:30;2.20;;;2.00;;
15946;SDS011;8072;52.554;7.966;2023-05-14T13:49:56;3.28;;;2.72;;
15946;SDS011;8072;52.554;7.966;2023-05-14T13:52:22;3.30;;;2.30;;
15946;SDS011;8072;52.554;7.966;2023-05-14T13:54:48;3.50;;;1.95;;
15946;SDS011;8072;52.554;7.966;2023-05-14T13:57:14;3.22;;;2.10;;
15946;SDS011;8072;52.554;7.966;2023-05-14T13:59:40;2.30;;;2.10;;
15946;SDS011;8072;52.554;7.966;2023-05-14T14:02:06;2.40;;;2.20;;
15946;SDS011;8072;52.554;7.966;2023-05-14T14:04:32;2.65;;;1.83;;
15946;SDS011;8072;52.554;7.966;2023-05-14T14:06:58;2.03;;;1.83;;
15946;SDS011;8072;52.554;7.966;2023-05-14T14:09:27;2.20;;;2.00;;
15946;SDS011;8072;52.554;7.966;2023-05-14T14:11:52;2.40;;;2.20;;
15946;SDS011;8072;52.554;7.966;2023-05-14T14:14:18;2.50;;;2.25;;
15946;SDS011;8072;52.554;7.966;2023-05-14T14:16:44;3.28;;;2.30;;
15946;SDS011;8072;52.554;7.966;2023-05-14T14:19:10;3.17;;;2.20;;
15946;SDS011;8072;52.554;7.966;2023-05-14T14:21:37;3.88;;;1.95;;
15946;SDS011;8072;52.554;7.966;2023-05-14T14:24:06;3.05;;;2.00;;
15946;SDS011;8072;52.554;7.966;2023-05-14T14:26:32;2.08;;;1.90;;
15946;SDS011;8072;52.554;7.966;2023-05-14T14:28:58;2.53;;;2.20;;
15946;SDS011;8072;52.554;7.966;2023-05-14T14:31:24;2.40;;;2.20;;
15946;SDS011;8072;52.554;7.966;2023-05-14T14:33:49;2.65;;;2.40;;
15946;SDS011;8072;52.554;7.966;2023-05-14T14:36:15;2.58;;;2.38;;
15946;SDS011;8072;52.554;7.966;2023-05-14T14:38:41;2.35;;;2.00;;
15946;SDS011;8072;52.554;7.966;2023-05-14T14:41:07;4.00;;;2.40;;
15946;SDS011;8072;52.554;7.966;2023-05-14T14:43:34;3.97;;;2.47;;
15946;SDS011;8072;52.554;7.966;2023-05-14T14:46:00;4.45;;;2.78;;
15946;SDS011;8072;52.554;7.966;2023-05-14T14:48:33;3.08;;;2.28;;
15946;SDS011;8072;52.554;7.966;2023-05-14T14:51:03;3.00;;;2.10;;
15946;SDS011;8072;52.554;7.966;2023-05-14T14:53:32;5.03;;;2.30;;
15946;SDS011;8072;52.554;7.966;2023-05-14T14:55:59;3.40;;;2.15;;
15946;SDS011;8072;52.554;7.966;2023-05-14T14:58:26;2.97;;;2.13;;
15946;SDS011;8072;52.554;7.966;2023-05-14T15:00:55;2.28;;;1.92;;